createdAt,value
2019-03-31T00:02:02.245Z,7.18
2019-03-31T00:04:28.450Z,7.24
2019-03-31T00:06:54.740Z,7.22
2019-03-31T00:09:21.048Z,7.34
2019-03-31T00:11:47.158Z,7.35
2019-03-31T00:14:13.365Z,7.39
2019-03-31T00:16:39.585Z,7.31
2019-03-31T00:19:05.780Z,7.42
2019-03-31T00:21:32.136Z,7.25
2019-03-31T00:23:58.358Z,7.04
2019-03-31T00:26:24.511Z,6.95
2019-03-31T00:28:50.872Z,6.95
2019-03-31T00:31:22.275Z,7.18
2019-03-31T00:33:45.132Z,7.23
2019-03-31T00:36:11.471Z,7.29
2019-03-31T00:38:38.892Z,7.06
2019-03-31T00:41:05.121Z,7.12
2019-03-31T00:43:31.336Z,7.10
2019-03-31T00:45:57.558Z,7.04
2019-03-31T00:48:23.755Z,7.03
2019-03-31T00:50:50.063Z,7.14
2019-03-31T00:53:16.313Z,7.15
2019-03-31T00:55:42.402Z,7.16
2019-03-31T00:58:08.663Z,7.07
2019-03-31T01:00:45.740Z,7.07
2019-03-31T01:03:14.043Z,7.09
2019-03-31T01:05:41.202Z,6.96
2019-03-31T01:08:07.632Z,6.99
2019-03-31T01:10:35.038Z,7.04
2019-03-31T01:13:01.448Z,7.08
2019-03-31T01:15:28.572Z,7.16
2019-03-31T01:17:55.180Z,7.11
2019-03-31T01:20:21.260Z,7.22
2019-03-31T01:22:47.434Z,7.25
2019-03-31T01:25:14.499Z,7.34
2019-03-31T01:27:41.229Z,7.33
2019-03-31T01:30:10.386Z,7.41
2019-03-31T01:32:37.911Z,7.35
2019-03-31T01:35:09.593Z,7.29
2019-03-31T01:37:35.991Z,7.19
2019-03-31T01:40:04.037Z,7.05
2019-03-31T01:42:31.542Z,6.84
2019-03-31T01:44:57.961Z,6.84
2019-03-31T01:47:24.207Z,6.70
2019-03-31T01:49:50.496Z,6.48
2019-03-31T01:52:16.592Z,6.30
2019-03-31T01:54:43.833Z,6.32
2019-03-31T01:57:10.055Z,6.38
2019-03-31T01:59:36.380Z,6.56
2019-03-31T02:02:04.477Z,6.53
2019-03-31T02:04:31.069Z,6.53
2019-03-31T02:06:57.294Z,6.48
2019-03-31T02:09:23.585Z,6.28
2019-03-31T02:11:49.785Z,6.30
2019-03-31T02:14:15.892Z,6.26
2019-03-31T02:16:42.186Z,6.21
2019-03-31T02:19:08.393Z,6.27
2019-03-31T02:21:34.749Z,6.33
2019-03-31T02:24:01.062Z,6.29
2019-03-31T02:26:27.174Z,6.30
2019-03-31T02:28:53.373Z,6.17
2019-03-31T02:31:19.590Z,6.17
2019-03-31T02:33:45.695Z,6.05
2019-03-31T02:36:11.905Z,6.11
2019-03-31T02:38:38.149Z,6.17
2019-03-31T02:41:04.261Z,6.29
2019-03-31T02:43:30.358Z,6.37
2019-03-31T02:45:56.577Z,6.43
2019-03-31T02:48:22.698Z,6.47
2019-03-31T02:50:49.978Z,6.45
2019-03-31T02:53:17.683Z,6.52
2019-03-31T02:55:44.602Z,6.55
2019-03-31T02:58:12.961Z,6.60
2019-03-31T03:00:39.293Z,6.71
2019-03-31T03:03:05.999Z,6.83
2019-03-31T03:05:32.778Z,6.82
2019-03-31T03:07:59.870Z,6.82
2019-03-31T03:10:26.567Z,6.82
2019-03-31T03:12:56.369Z,6.83
2019-03-31T03:15:26.417Z,6.94
2019-03-31T03:17:52.737Z,6.97
2019-03-31T03:20:18.878Z,6.99
2019-03-31T03:22:45.004Z,7.04
2019-03-31T03:25:11.094Z,7.06
2019-03-31T03:27:37.403Z,7.07
2019-03-31T03:30:05.197Z,7.07
2019-03-31T03:32:31.486Z,7.00
2019-03-31T03:34:57.618Z,6.83
2019-03-31T03:37:23.684Z,6.73
2019-03-31T03:39:49.759Z,6.74
2019-03-31T03:42:15.863Z,6.68
2019-03-31T03:44:42.959Z,6.50
2019-03-31T03:47:09.186Z,6.40
2019-03-31T03:49:35.364Z,6.43
2019-03-31T03:52:01.492Z,6.41
2019-03-31T03:54:27.826Z,6.59
2019-03-31T03:56:53.905Z,6.49
2019-03-31T03:59:20.138Z,6.51
2019-03-31T04:01:46.302Z,6.47
2019-03-31T04:04:12.629Z,6.49
2019-03-31T04:06:38.792Z,6.51
2019-03-31T04:09:05.592Z,6.62
2019-03-31T04:11:31.910Z,6.88
2019-03-31T04:13:58.101Z,6.82
2019-03-31T04:16:24.307Z,6.86
2019-03-31T04:18:50.640Z,6.94
2019-03-31T04:21:16.819Z,6.97
2019-03-31T04:23:43.160Z,7.10
2019-03-31T04:26:09.287Z,7.20
2019-03-31T04:28:35.618Z,7.26
2019-03-31T04:31:01.943Z,7.29
2019-03-31T04:33:48.382Z,7.34
2019-03-31T04:35:57.103Z,7.31
2019-03-31T04:38:23.204Z,7.40
2019-03-31T04:40:49.515Z,7.26
2019-03-31T04:43:15.799Z,7.28
2019-03-31T04:45:42.122Z,7.27
2019-03-31T04:48:09.296Z,7.32
2019-03-31T04:50:35.610Z,7.30
2019-03-31T04:53:01.739Z,7.32
2019-03-31T04:55:28.027Z,7.37
2019-03-31T04:57:54.222Z,7.35
2019-03-31T05:00:20.526Z,7.29
2019-03-31T05:02:46.739Z,7.24
2019-03-31T05:05:13.022Z,7.25
2019-03-31T05:07:39.340Z,7.30
2019-03-31T05:10:07.085Z,7.47
2019-03-31T05:12:33.184Z,7.39
2019-03-31T05:14:59.274Z,7.23
2019-03-31T05:17:25.472Z,7.31
2019-03-31T05:19:51.881Z,7.24
2019-03-31T05:22:18.158Z,7.27
2019-03-31T05:24:44.448Z,7.18
2019-03-31T05:27:10.593Z,7.08
2019-03-31T05:29:36.819Z,7.06
2019-03-31T05:32:03.971Z,6.90
2019-03-31T05:34:30.179Z,6.88
2019-03-31T05:36:56.357Z,6.75
2019-03-31T05:39:22.590Z,6.81
2019-03-31T05:41:48.769Z,6.74
2019-03-31T05:44:15.001Z,6.76
2019-03-31T05:46:41.215Z,6.69
2019-03-31T05:49:07.541Z,6.67
2019-03-31T05:51:33.776Z,6.48
2019-03-31T05:54:00.076Z,6.27
2019-03-31T05:56:27.096Z,6.21
2019-03-31T05:58:53.306Z,6.17
2019-03-31T06:01:19.591Z,6.11
2019-03-31T06:03:45.868Z,6.10
2019-03-31T06:06:12.196Z,6.25
2019-03-31T06:08:38.333Z,6.27
2019-03-31T06:11:04.557Z,6.25
2019-03-31T06:13:30.895Z,6.35
2019-03-31T06:15:58.219Z,6.26
2019-03-31T06:18:24.361Z,6.12
2019-03-31T06:20:50.587Z,6.15
2019-03-31T06:23:16.919Z,6.06
2019-03-31T06:25:43.264Z,6.19
2019-03-31T06:28:09.681Z,6.05
2019-03-31T06:30:35.900Z,6.02
2019-03-31T06:33:02.119Z,6.00
2019-03-31T06:35:28.499Z,6.06
2019-03-31T06:37:54.623Z,6.15
2019-03-31T06:40:20.810Z,6.12
2019-03-31T06:42:47.090Z,6.09
2019-03-31T06:45:13.366Z,6.23
2019-03-31T06:47:39.666Z,6.35
2019-03-31T06:50:07.273Z,6.48
2019-03-31T06:52:33.497Z,6.48
2019-03-31T06:54:59.682Z,6.47
2019-03-31T06:57:26.001Z,6.46
2019-03-31T06:59:52.190Z,6.61
2019-03-31T07:02:18.428Z,6.65
2019-03-31T07:04:44.692Z,6.78
2019-03-31T07:07:10.825Z,6.67
2019-03-31T07:09:37.010Z,6.83
2019-03-31T07:12:03.333Z,6.89
2019-03-31T07:14:29.452Z,6.98
2019-03-31T07:16:55.561Z,6.99
2019-03-31T07:19:22.014Z,7.01
2019-03-31T07:21:49.232Z,7.04
2019-03-31T07:24:15.456Z,7.17
2019-03-31T07:26:41.604Z,7.44
2019-03-31T07:29:07.829Z,7.53
2019-03-31T07:31:34.052Z,7.62
2019-03-31T07:34:00.289Z,7.70
2019-03-31T07:36:26.426Z,7.66
2019-03-31T07:38:52.780Z,7.73
2019-03-31T07:41:19.158Z,7.61
2019-03-31T07:43:45.632Z,7.81
2019-03-31T07:46:11.834Z,7.91
2019-03-31T07:48:38.074Z,7.97
2019-03-31T07:51:04.248Z,8.24
2019-03-31T07:53:30.452Z,8.13
2019-03-31T07:55:56.795Z,8.34
2019-03-31T07:58:23.059Z,8.23
2019-03-31T08:00:49.280Z,8.19
2019-03-31T08:03:15.505Z,7.97
2019-03-31T08:05:41.940Z,7.89
2019-03-31T08:08:08.315Z,7.86
2019-03-31T08:10:34.684Z,7.84
2019-03-31T08:13:01.521Z,7.88
2019-03-31T08:15:27.896Z,7.93
2019-03-31T08:17:54.168Z,7.96
2019-03-31T08:20:20.697Z,8.03
2019-03-31T08:22:46.919Z,8.10
2019-03-31T08:25:13.713Z,8.64
2019-03-31T08:27:40.006Z,9.03
2019-03-31T08:30:09.402Z,9.14
2019-03-31T08:32:35.540Z,9.56
2019-03-31T08:35:03.052Z,9.50
2019-03-31T08:37:29.159Z,9.32
2019-03-31T08:39:55.312Z,9.13
2019-03-31T08:42:21.564Z,9.18
2019-03-31T08:44:48.001Z,9.03
2019-03-31T08:47:14.153Z,9.07
2019-03-31T08:49:40.289Z,9.06
2019-03-31T08:52:06.604Z,9.18
2019-03-31T08:54:32.800Z,9.21
2019-03-31T08:56:59.214Z,9.26
2019-03-31T08:59:25.385Z,9.05
2019-03-31T09:01:52.024Z,9.14
2019-03-31T09:04:18.129Z,9.25
2019-03-31T09:06:44.553Z,9.25
2019-03-31T09:09:10.753Z,9.03
2019-03-31T09:11:37.103Z,9.06
2019-03-31T09:14:03.912Z,9.18
2019-03-31T09:16:30.228Z,9.23
2019-03-31T09:18:57.336Z,9.19
2019-03-31T09:21:24.897Z,9.51
2019-03-31T09:23:51.115Z,9.17
2019-03-31T09:26:18.677Z,9.20
2019-03-31T09:28:44.903Z,9.20
2019-03-31T09:31:11.109Z,9.35
2019-03-31T09:33:39.462Z,9.18
2019-03-31T09:36:16.106Z,9.28
2019-03-31T09:38:33.607Z,9.24
2019-03-31T09:40:59.844Z,9.46
2019-03-31T09:43:26.104Z,9.07
2019-03-31T09:45:52.253Z,9.17
2019-03-31T09:48:18.526Z,9.37
2019-03-31T09:50:44.806Z,9.61
2019-03-31T09:53:10.899Z,9.75
2019-03-31T09:55:37.155Z,9.86
2019-03-31T09:58:03.464Z,9.97
2019-03-31T10:00:44.092Z,9.83
2019-03-31T10:03:10.524Z,9.84
2019-03-31T10:05:36.853Z,9.65
2019-03-31T10:08:03.203Z,9.65
2019-03-31T10:10:31.299Z,9.58
2019-03-31T10:12:57.480Z,9.56
2019-03-31T10:15:23.660Z,9.60
2019-03-31T10:17:50.049Z,9.85
2019-03-31T10:20:16.371Z,9.97
2019-03-31T10:22:42.796Z,10.12
2019-03-31T10:25:09.411Z,10.09
2019-03-31T10:27:35.621Z,10.16
2019-03-31T10:30:04.323Z,10.24
2019-03-31T10:32:30.660Z,10.35
2019-03-31T10:34:56.895Z,10.46
2019-03-31T10:37:23.122Z,10.63
2019-03-31T10:39:49.448Z,10.52
2019-03-31T10:42:15.620Z,10.12
2019-03-31T10:44:41.836Z,10.12
2019-03-31T10:47:08.135Z,10.31
2019-03-31T10:49:34.339Z,10.50
2019-03-31T10:52:00.655Z,10.54
2019-03-31T10:54:26.853Z,10.27
2019-03-31T10:56:53.179Z,10.04
2019-03-31T10:59:19.413Z,10.19
2019-03-31T11:01:45.770Z,10.27
2019-03-31T11:04:12.097Z,10.19
2019-03-31T11:06:38.412Z,9.98
2019-03-31T11:09:05.268Z,9.85
2019-03-31T11:11:31.529Z,10.05
2019-03-31T11:13:57.884Z,10.09
2019-03-31T11:16:24.233Z,10.28
2019-03-31T11:18:50.493Z,10.50
2019-03-31T11:21:21.340Z,10.44
2019-03-31T11:23:47.666Z,10.41
2019-03-31T11:26:14.159Z,10.40
2019-03-31T11:28:40.802Z,10.45
2019-03-31T11:31:07.155Z,10.30
2019-03-31T11:33:33.500Z,10.23
2019-03-31T11:35:59.961Z,10.35
2019-03-31T11:38:26.302Z,10.44
2019-03-31T11:40:53.526Z,10.23
2019-03-31T11:43:19.788Z,10.12
2019-03-31T11:45:46.099Z,10.51
2019-03-31T11:48:12.340Z,10.49
2019-03-31T11:50:38.596Z,10.59
2019-03-31T11:53:04.894Z,10.17
2019-03-31T11:55:31.157Z,10.22
2019-03-31T11:57:57.592Z,10.23
2019-03-31T12:00:25.737Z,10.04
2019-03-31T12:02:52.230Z,10.22
2019-03-31T12:05:18.438Z,10.07
2019-03-31T12:07:47.093Z,9.94
2019-03-31T12:10:13.115Z,10.07
2019-03-31T12:12:39.355Z,9.98
2019-03-31T12:15:06.792Z,9.77
2019-03-31T12:17:33.135Z,9.92
2019-03-31T12:19:59.495Z,9.86
2019-03-31T12:22:25.847Z,10.07
2019-03-31T12:24:52.119Z,10.35
2019-03-31T12:27:18.515Z,10.27
2019-03-31T12:29:44.734Z,10.49
2019-03-31T12:32:11.014Z,10.49
2019-03-31T12:34:37.479Z,10.32
2019-03-31T12:37:03.835Z,10.56
2019-03-31T12:39:30.117Z,10.71
2019-03-31T12:41:56.380Z,10.92
2019-03-31T12:44:25.064Z,10.80
2019-03-31T12:46:50.836Z,10.82
2019-03-31T12:49:17.188Z,10.67
2019-03-31T12:51:43.535Z,10.77
2019-03-31T12:54:09.755Z,10.48
2019-03-31T12:56:36.179Z,10.62
2019-03-31T12:59:02.522Z,10.97
2019-03-31T13:01:29.752Z,11.15
2019-03-31T13:03:55.978Z,11.22
2019-03-31T13:06:22.345Z,11.02
2019-03-31T13:08:48.600Z,11.68
2019-03-31T13:11:14.866Z,11.68
2019-03-31T13:13:41.117Z,12.42
2019-03-31T13:16:07.465Z,12.63
2019-03-31T13:18:33.701Z,13.19
2019-03-31T13:21:00.026Z,13.38
2019-03-31T13:23:26.521Z,13.71
2019-03-31T13:25:52.860Z,13.22
2019-03-31T13:28:19.168Z,12.79
2019-03-31T13:30:45.510Z,12.80
2019-03-31T13:33:11.877Z,12.46
2019-03-31T13:35:38.329Z,12.51
2019-03-31T13:38:11.375Z,12.40
2019-03-31T13:40:33.249Z,12.13
2019-03-31T13:42:59.691Z,12.07
2019-03-31T13:45:26.173Z,12.67
2019-03-31T13:47:52.548Z,13.75
2019-03-31T13:50:18.946Z,13.69
2019-03-31T13:52:46.709Z,13.62
2019-03-31T13:55:13.101Z,13.19
2019-03-31T13:57:40.398Z,12.15
2019-03-31T14:00:09.250Z,11.86
2019-03-31T14:02:35.545Z,12.10
2019-03-31T14:05:02.058Z,12.10
2019-03-31T14:07:29.425Z,12.20
2019-03-31T14:09:55.952Z,12.81
2019-03-31T14:12:22.525Z,13.61
2019-03-31T14:14:48.731Z,13.47
2019-03-31T14:17:15.119Z,12.95
2019-03-31T14:19:41.361Z,12.28
2019-03-31T14:22:07.856Z,12.41
2019-03-31T14:24:33.977Z,13.17
2019-03-31T14:27:00.314Z,12.72
2019-03-31T14:29:26.898Z,12.63
2019-03-31T14:31:53.233Z,13.49
2019-03-31T14:34:19.532Z,13.38
2019-03-31T14:36:45.889Z,13.29
2019-03-31T14:39:12.296Z,12.50
2019-03-31T14:41:38.696Z,12.61
2019-03-31T14:44:04.948Z,12.01
2019-03-31T14:46:31.425Z,11.57
2019-03-31T14:48:57.962Z,11.51
2019-03-31T14:51:24.177Z,11.79
2019-03-31T14:53:50.469Z,12.09
2019-03-31T14:56:16.694Z,12.56
2019-03-31T14:58:42.838Z,12.62
2019-03-31T15:01:09.137Z,12.29
2019-03-31T15:03:35.408Z,12.08
2019-03-31T15:06:01.640Z,12.36
2019-03-31T15:08:27.884Z,12.40
2019-03-31T15:10:54.248Z,12.25
2019-03-31T15:13:20.985Z,12.16
2019-03-31T15:15:47.140Z,11.81
2019-03-31T15:18:13.633Z,11.83
2019-03-31T15:20:39.967Z,12.07
2019-03-31T15:23:06.420Z,11.82
2019-03-31T15:25:32.931Z,11.82
2019-03-31T15:27:59.041Z,11.61
2019-03-31T15:30:25.310Z,11.81
2019-03-31T15:32:51.601Z,11.81
2019-03-31T15:35:17.869Z,11.92
2019-03-31T15:37:44.235Z,11.94
2019-03-31T15:40:10.972Z,11.54
2019-03-31T15:42:37.221Z,11.71
2019-03-31T15:45:04.564Z,11.75
2019-03-31T15:47:31.004Z,11.87
2019-03-31T15:49:57.308Z,11.63
2019-03-31T15:52:23.787Z,11.63
2019-03-31T15:54:50.137Z,11.47
2019-03-31T15:57:16.505Z,11.82
2019-03-31T15:59:48.818Z,11.82
2019-03-31T16:02:15.401Z,11.62
2019-03-31T16:04:41.533Z,11.62
2019-03-31T16:07:07.859Z,11.74
2019-03-31T16:09:34.212Z,11.55
2019-03-31T16:12:00.661Z,11.23
2019-03-31T16:14:27.104Z,11.67
2019-03-31T16:16:53.321Z,11.74
2019-03-31T16:19:19.662Z,11.74
2019-03-31T16:21:45.867Z,11.92
2019-03-31T16:24:12.167Z,12.12
2019-03-31T16:26:38.551Z,12.12
2019-03-31T16:29:04.843Z,11.71
2019-03-31T16:31:31.205Z,11.69
2019-03-31T16:33:57.446Z,11.69
2019-03-31T16:36:23.729Z,11.89
2019-03-31T16:38:49.997Z,11.89
2019-03-31T16:41:16.242Z,11.55
2019-03-31T16:43:42.484Z,11.82
2019-03-31T16:46:08.850Z,12.12
2019-03-31T16:48:35.078Z,11.48
2019-03-31T16:51:01.199Z,11.24
2019-03-31T16:53:27.619Z,11.24
2019-03-31T16:55:53.956Z,11.02
2019-03-31T16:58:20.190Z,10.91
2019-03-31T17:00:46.435Z,10.91
2019-03-31T17:03:12.621Z,10.73
2019-03-31T17:05:38.951Z,10.73
2019-03-31T17:08:05.327Z,10.86
2019-03-31T17:10:31.554Z,10.72
2019-03-31T17:12:57.919Z,10.70
2019-03-31T17:15:24.168Z,10.49
2019-03-31T17:17:50.419Z,10.49
2019-03-31T17:20:16.673Z,10.23
2019-03-31T17:22:42.911Z,10.43
2019-03-31T17:25:09.289Z,10.43
2019-03-31T17:27:35.649Z,10.32
2019-03-31T17:30:04.082Z,10.25
2019-03-31T17:32:30.320Z,9.96
2019-03-31T17:34:57.878Z,9.75
2019-03-31T17:37:24.248Z,9.76
2019-03-31T17:40:05.102Z,9.68
2019-03-31T17:42:18.979Z,9.59
2019-03-31T17:44:47.194Z,9.47
2019-03-31T17:47:13.430Z,9.48
2019-03-31T17:49:39.648Z,9.35
2019-03-31T17:52:06.020Z,9.31
2019-03-31T17:54:32.286Z,9.24
2019-03-31T17:56:58.592Z,9.21
2019-03-31T17:59:24.696Z,9.12
2019-03-31T18:01:51.137Z,9.09
2019-03-31T18:04:17.502Z,9.13
2019-03-31T18:06:43.918Z,8.97
2019-03-31T18:09:10.174Z,8.91
2019-03-31T18:11:36.603Z,8.89
2019-03-31T18:14:06.723Z,8.90
2019-03-31T18:16:32.537Z,8.88
2019-03-31T18:18:59.883Z,8.86
2019-03-31T18:21:27.343Z,8.62
2019-03-31T18:23:53.824Z,8.57
2019-03-31T18:26:20.011Z,8.54
2019-03-31T18:28:46.466Z,8.59
2019-03-31T18:31:12.703Z,8.48
2019-03-31T18:33:39.033Z,8.48
2019-03-31T18:36:05.237Z,8.41
2019-03-31T18:38:31.566Z,8.22
2019-03-31T18:40:57.733Z,8.31
2019-03-31T18:43:24.007Z,8.23
2019-03-31T18:45:50.437Z,8.14
2019-03-31T18:48:16.579Z,8.04
2019-03-31T18:50:42.695Z,8.04
2019-03-31T18:53:10.932Z,8.04
2019-03-31T18:55:50.845Z,7.87
2019-03-31T18:58:21.587Z,7.84
2019-03-31T19:00:58.645Z,7.72
2019-03-31T19:03:41.767Z,7.80
2019-03-31T19:06:21.987Z,7.74
2019-03-31T19:08:52.919Z,7.64
2019-03-31T19:11:33.153Z,7.73
2019-03-31T19:14:04.490Z,7.58
2019-03-31T19:16:35.416Z,7.39
2019-03-31T19:19:09.522Z,7.46
2019-03-31T19:21:40.539Z,7.46
2019-03-31T19:24:26.663Z,7.33
2019-03-31T19:27:11.406Z,7.22
2019-03-31T19:29:51.896Z,7.16
2019-03-31T19:32:26.105Z,7.17
2019-03-31T19:34:54.359Z,7.12
2019-03-31T19:37:39.246Z,7.08
2019-03-31T19:40:07.475Z,7.08
2019-03-31T19:42:35.499Z,7.10
2019-03-31T19:45:04.974Z,6.95
2019-03-31T19:47:39.214Z,6.89
2019-03-31T19:50:07.535Z,6.87
2019-03-31T19:52:47.578Z,6.86
2019-03-31T19:55:34.027Z,6.80
2019-03-31T19:58:02.374Z,6.58
2019-03-31T20:00:30.544Z,6.41
2019-03-31T20:03:04.666Z,6.49
2019-03-31T20:05:32.828Z,6.43
2019-03-31T20:08:06.681Z,6.49
2019-03-31T20:10:52.813Z,6.45
2019-03-31T20:13:46.212Z,6.38
2019-03-31T20:16:17.400Z,6.24
2019-03-31T20:19:00.494Z,6.23
2019-03-31T20:21:32.570Z,6.15
2019-03-31T20:24:13.017Z,6.09
2019-03-31T20:26:44.356Z,6.05
2019-03-31T20:29:15.486Z,6.00
2019-03-31T20:32:01.583Z,5.98
2019-03-31T20:34:32.790Z,5.93
2019-03-31T20:37:01.138Z,5.77
2019-03-31T20:39:29.239Z,5.67
2019-03-31T20:42:03.417Z,5.70
2019-03-31T20:44:29.837Z,5.65
2019-03-31T20:46:56.052Z,5.63
2019-03-31T20:49:22.402Z,5.54
2019-03-31T20:51:48.693Z,5.54
2019-03-31T20:54:14.956Z,5.50
2019-03-31T20:56:41.161Z,5.44
2019-03-31T20:59:07.363Z,5.45
2019-03-31T21:01:33.794Z,5.34
2019-03-31T21:03:59.978Z,5.37
2019-03-31T21:06:26.306Z,5.37
2019-03-31T21:08:52.633Z,5.27
2019-03-31T21:11:18.834Z,5.25
2019-03-31T21:13:46.278Z,5.22
2019-03-31T21:16:12.365Z,5.16
2019-03-31T21:18:38.595Z,5.12
2019-03-31T21:21:05.745Z,5.09
2019-03-31T21:23:32.303Z,4.98
2019-03-31T21:25:58.424Z,4.92
2019-03-31T21:28:24.658Z,4.90
2019-03-31T21:30:50.886Z,4.88
2019-03-31T21:33:17.105Z,4.86
2019-03-31T21:35:43.354Z,4.83
2019-03-31T21:38:09.575Z,4.73
2019-03-31T21:40:35.716Z,4.78
2019-03-31T21:43:01.840Z,4.70
2019-03-31T21:45:28.045Z,4.70
2019-03-31T21:47:54.264Z,4.62
2019-03-31T21:50:20.605Z,4.54
2019-03-31T21:52:46.845Z,4.56
2019-03-31T21:55:13.085Z,4.58
2019-03-31T21:57:39.311Z,4.46
2019-03-31T22:00:09.092Z,4.50
2019-03-31T22:02:37.491Z,4.40
2019-03-31T22:05:06.900Z,4.41
2019-03-31T22:07:33.219Z,4.39
2019-03-31T22:09:59.529Z,4.35
2019-03-31T22:12:25.728Z,4.31
2019-03-31T22:14:51.960Z,4.26
2019-03-31T22:17:18.263Z,4.26
2019-03-31T22:19:44.675Z,4.20
2019-03-31T22:22:11.020Z,4.12
2019-03-31T22:24:37.842Z,4.20
2019-03-31T22:27:04.192Z,4.14
2019-03-31T22:29:30.586Z,4.23
2019-03-31T22:31:57.096Z,3.99
2019-03-31T22:34:23.461Z,4.00
2019-03-31T22:36:49.707Z,3.99
2019-03-31T22:39:16.295Z,3.94
2019-03-31T22:41:42.582Z,4.00
2019-03-31T22:44:09.021Z,3.96
2019-03-31T22:46:35.261Z,3.98
2019-03-31T22:49:01.483Z,3.91
2019-03-31T22:51:27.712Z,3.89
2019-03-31T22:53:54.194Z,3.89
2019-03-31T22:56:20.634Z,3.81
2019-03-31T22:58:46.970Z,3.80
2019-03-31T23:01:13.417Z,3.81
2019-03-31T23:03:39.731Z,3.75
2019-03-31T23:06:06.066Z,3.77
2019-03-31T23:08:32.348Z,3.75
2019-03-31T23:10:58.679Z,3.69
2019-03-31T23:13:24.938Z,3.70
2019-03-31T23:15:51.313Z,3.66
2019-03-31T23:18:17.420Z,3.75
2019-03-31T23:20:43.772Z,3.71
2019-03-31T23:23:09.987Z,3.71
2019-03-31T23:25:36.396Z,3.68
2019-03-31T23:28:02.774Z,3.67
2019-03-31T23:30:29.129Z,3.63
2019-03-31T23:32:55.473Z,3.66
2019-03-31T23:35:21.764Z,3.62
2019-03-31T23:37:48.060Z,3.56
2019-03-31T23:40:14.468Z,3.57
2019-03-31T23:42:40.722Z,3.53
2019-03-31T23:45:09.124Z,3.56
2019-03-31T23:47:35.274Z,3.55
2019-03-31T23:50:01.650Z,3.50
2019-03-31T23:52:28.517Z,3.55
2019-03-31T23:54:54.820Z,3.45
2019-03-31T23:57:23.008Z,3.51
2019-03-31T23:59:49.111Z,3.53
